Meddelanden - kartvy · info · telemetri · väder · rådata · status · furar · meddelanden · bulletiner · bläddra · rörliga · mitt konto
Anrop:
Visa:

Laddar message paket...

APRS-meddelanden sparas i 14 dagar. Man kan söka med hjälp av jokertecken (*?) efter ett prefix.

2019-04-25 02:05:15 EDT: JF1XEP-5>JG1RBF-9: ga!o2o2sama
2019-04-25 02:05:32 EDT: G0RSQ>G4FKH: A,-103.6,-105.4,-106.8,B,-95.8,-98.8,-100.1,C,-104.2,-112.5,-113.7,D,-91,-103.3,-104.4,E,-104.8,-112.8,-113.9
2019-04-25 02:05:33 EDT: JF1XEP-5>JR1QQG-7: ga!
2019-04-25 02:05:49 EDT: SHVTOR>NWS-WARN: 250645z,TORNADO,LAC013-049-061
2019-04-25 02:05:49 EDT: SHVTOR>NWS_WARN: 250645z,TORNADO,LAC013-049-061
2019-04-25 02:05:49 EDT: SHVTOR>NWS-WARN: 250615z,TORNADO,LAC013-069-081
2019-04-25 02:05:49 EDT: SHVTOR>NWS_WARN: 250615z,TORNADO,LAC013-069-081
2019-04-25 02:06:05 EDT: WHO-15>WC3NIU-4: WC3NIU was not found!
2019-04-25 02:06:14 EDT: JF1XEP-5>JG1RBF-9: ga!o2o2sama
2019-04-25 02:06:23 EDT: VK8ZKZ-9>VK5NG-9: hear you cheers kaz
2019-04-25 02:06:33 EDT: JF1XEP-5>JR1QQG-7: ga!
2019-04-25 02:06:40 EDT: KL7AA-15>WXBOT: 99587 full
2019-04-25 02:06:43 EDT: WXBOT>KL7AA-15: Alyeska AK. Tonight,Scattered snow showers before 1am, then snow li
2019-04-25 02:06:48 EDT: WXBOT>KL7AA-15: kely, mainly after 4am. Cloudy, with a low around 28. East wind ar
2019-04-25 02:06:49 EDT: SHVFFW>NWS-WARN: 250815z,FLASH_FLOOD,TXC403-405-419
2019-04-25 02:06:49 EDT: SHVFFW>NWS_WARN: 250815z,FLASH_FLOOD,TXC403-405-419
2019-04-25 02:06:53 EDT: WXBOT>KL7AA-15: ound 10 mph. Chance of precipitation is 60%. Total nighttime snow
2019-04-25 02:06:58 EDT: WXBOT>KL7AA-15: accumulation of less than one inch possible.
2019-04-25 02:07:09 EDT: MTHOOD>N7QME: hum 51 12 70
2019-04-25 02:07:11 EDT: VK2GJ-2>VK2GJ-7: Directs=VK2RHR-1 VK2AMW-1 VK2BWI-3
2019-04-25 02:07:11 EDT: DB0TS-10>DB0TS-9: T#001,000,000,000,000,000,00000000,Test
2019-04-25 02:07:14 EDT: JF1XEP-5>JG1RBF-9: ga!o2o2sama
2019-04-25 02:07:27 EDT: KM4KAW-9>KM4KAW: SitRep: 10.50208 58.88f
2019-04-25 02:07:33 EDT: SHLBTP>SHLBTP: Info - Cabinet Temp = 69.0F Vcc = 13.6V
2019-04-25 02:07:33 EDT: JF1XEP-5>JR1QQG-7: ga!
2019-04-25 02:07:38 EDT: VK8ZKZ-9>VK5NG-9: hear you cheers kaz
2019-04-25 02:07:40 EDT: JG1RBF-9>JF1XEP-5: Ga
2019-04-25 02:07:42 EDT: FW0690>FW0690: UPTM.20 days, 22:00:42
2019-04-25 02:07:49 EDT: SHVSVR>NWS-WARN: 250615z,SVR_STORM,LAC031-069-081-085-TXC403-405-419
2019-04-25 02:07:49 EDT: SHVSVR>NWS_WARN: 250615z,SVR_STORM,LAC031-069-081-085-TXC403-405-419
2019-04-25 02:07:54 EDT: BEAR>KG7AFQ-10: BAKERSMS - SA
2019-04-25 02:08:14 EDT: JF1XEP-5>JG1RBF-9: ga!o2o2sama
2019-04-25 02:08:19 EDT: KL7AA-15>ISS: a
2019-04-25 02:08:20 EDT: ISS>KL7AA-15: AOS 10h39m (1647z) SE^8
2019-04-25 02:08:33 EDT: JF1XEP-5>JR1QQG-7: ga!
2019-04-25 02:09:34 EDT: JF1XEP-5>JR1QQG-7: ga!
2019-04-25 02:09:52 EDT: VK8ZKZ-9>VK5RLZ-1: hi team cheers Kaz
2019-04-25 02:10:00 EDT: N7QME-2>N7QME: hum 54 58 50 60 73 71 63 71
2019-04-25 02:10:34 EDT: NMWMWW>BOM_WARN: 261400z,WIND,NSW_MW002>005
2019-04-25 02:10:34 EDT: NMWMWW>BOMNMW: Strong Wind Warning for coastal waters between Seal Rocks
2019-04-25 02:10:34 EDT: NMWMWW>BOMNMW: and Montague Island for Friday
2019-04-25 02:10:34 EDT: NMWMWW>BOM_WARN: 261400z,WIND,NSW_MW001
2019-04-25 02:10:34 EDT: NMWMWW>BOMNMW: Gale Force Wind Warning for coastal waters between Montague
2019-04-25 02:10:34 EDT: NMWMWW>BOMNMW: Island and Gabo Island for Friday
2019-04-25 02:10:35 EDT: KIMMWW>BOM_CANCL: 251600z,WIND,WA_MW001
2019-04-25 02:10:35 EDT: KIMMWW>BOMKIM: Cancellation of Wind Warning for coastal waters between
2019-04-25 02:10:35 EDT: KIMMWW>BOMKIM: WA-NT Border and Kuri Bay for Thursday
2019-04-25 02:10:49 EDT: VK8ZKZ-9>VK5RLZ-1: hi team cheers Kaz
2019-04-25 02:10:49 EDT: SHVTOR>NWS-WARN: 250645z,TORNADO,LAC013-049-061
2019-04-25 02:10:49 EDT: SHVTOR>NWS_WARN: 250645z,TORNADO,LAC013-049-061
< föregående
FAQ · Blogg · Diskussionsgrupp · Att länka till aprs.fi · AIS-positioner · Tjänstens status · Databasstatistik · Gör reklam på aprs.fi · Tekniska detaljer · API · Ändra logg · Planerade ändringar · Ära och tack · Användarvillkor · iPhone/iPad APRS